sensor_id;sensor_type;location;lat;lon;timestamp;pressure;altitude;pressure_sealevel;temperature;humidity
61010;BME280;46897;55.340;86.082;2023-05-03T00:02:16;101342.28;;;4.21;69.36
61010;BME280;46897;55.340;86.082;2023-05-03T00:05:04;101363.28;;;4.41;69.54
61010;BME280;46897;55.340;86.082;2023-05-03T00:07:36;101368.50;;;4.47;69.15
61010;BME280;46897;55.340;86.082;2023-05-03T00:12:56;101376.34;;;4.61;69.06
61010;BME280;46897;55.340;86.082;2023-05-03T00:15:25;101346.66;;;4.49;68.94
61010;BME280;46897;55.340;86.082;2023-05-03T00:17:54;101378.09;;;4.76;69.28
61010;BME280;46897;55.340;86.082;2023-05-03T00:20:24;101358.00;;;4.68;69.13
61010;BME280;46897;55.340;86.082;2023-05-03T00:23:10;101373.69;;;4.81;68.66
61010;BME280;46897;55.340;86.082;2023-05-03T00:25:41;101390.28;;;4.90;69.06
61010;BME280;46897;55.340;86.082;2023-05-03T00:28:46;101392.91;;;5.01;69.18
61010;BME280;46897;55.340;86.082;2023-05-03T00:31:15;101388.50;;;5.08;69.17
61010;BME280;46897;55.340;86.082;2023-05-03T00:33:44;101390.22;;;5.23;68.94
61010;BME280;46897;55.340;86.082;2023-05-03T00:39:20;101391.91;;;5.44;68.68
61010;BME280;46897;55.340;86.082;2023-05-03T00:41:55;101405.88;;;5.52;68.83
61010;BME280;46897;55.340;86.082;2023-05-03T00:44:24;101402.38;;;5.50;68.45
61010;BME280;46897;55.340;86.082;2023-05-03T00:46:54;101397.97;;;5.55;68.11
61010;BME280;46897;55.340;86.082;2023-05-03T00:49:24;101407.59;;;5.62;68.48
61010;BME280;46897;55.340;86.082;2023-05-03T00:52:10;101398.84;;;5.56;68.13
61010;BME280;46897;55.340;86.082;2023-05-03T00:54:40;101411.06;;;5.60;67.57
61010;BME280;46897;55.340;86.082;2023-05-03T00:57:29;101424.19;;;5.67;67.93
61010;BME280;46897;55.340;86.082;2023-05-03T01:00:16;101418.06;;;5.68;67.41
61010;BME280;46897;55.340;86.082;2023-05-03T01:02:46;101400.56;;;5.61;67.75
61010;BME280;46897;55.340;86.082;2023-05-03T01:05:16;101426.72;;;5.87;67.47
61010;BME280;46897;55.340;86.082;2023-05-03T01:07:53;101386.50;;;5.78;67.30
61010;BME280;46897;55.340;86.082;2023-05-03T01:10:32;101404.78;;;5.96;67.40
61010;BME280;46897;55.340;86.082;2023-05-03T01:15:59;101423.00;;;6.30;67.51
61010;BME280;46897;55.340;86.082;2023-05-03T01:18:38;101424.66;;;6.40;66.85
61010;BME280;46897;55.340;86.082;2023-05-03T01:21:12;101426.38;;;6.47;66.92
61010;BME280;46897;55.340;86.082;2023-05-03T01:23:45;101411.44;;;6.49;66.77
61010;BME280;46897;55.340;86.082;2023-05-03T01:26:21;101410.53;;;6.54;66.49
61010;BME280;46897;55.340;86.082;2023-05-03T01:29:09;101430.44;;;6.84;66.40
61010;BME280;46897;55.340;86.082;2023-05-03T01:31:43;101220.94;;;5.79;65.94
61010;BME280;46897;55.340;86.082;2023-05-03T01:34:53;101413.38;;;7.20;65.36
61010;BME280;46897;55.340;86.082;2023-05-03T01:37:23;101430.78;;;7.37;65.34
61010;BME280;46897;55.340;86.082;2023-05-03T01:39:57;101421.03;;;7.43;65.06
61010;BME280;46897;55.340;86.082;2023-05-03T01:42:30;101433.97;;;7.63;64.38
61010;BME280;46897;55.340;86.082;2023-05-03T01:45:20;101428.53;;;7.76;64.11
61010;BME280;46897;55.340;86.082;2023-05-03T01:47:49;101435.41;;;7.87;63.84
61010;BME280;46897;55.340;86.082;2023-05-03T01:50:37;101440.47;;;8.01;63.74
61010;BME280;46897;55.340;86.082;2023-05-03T01:53:06;101443.09;;;8.03;63.43
61010;BME280;46897;55.340;86.082;2023-05-03T01:55:36;101444.03;;;8.00;62.81
61010;BME280;46897;55.340;86.082;2023-05-03T01:58:07;101440.56;;;7.95;62.48
61010;BME280;46897;55.340;86.082;2023-05-03T02:00:36;101452.81;;;7.99;62.47
61010;BME280;46897;55.340;86.082;2023-05-03T02:03:06;101444.88;;;8.02;62.09
61010;BME280;46897;55.340;86.082;2023-05-03T02:05:35;101443.75;;;8.20;61.75
61010;BME280;46897;55.340;86.082;2023-05-03T02:08:23;101452.28;;;8.36;61.41
61010;BME280;46897;55.340;86.082;2023-05-03T02:10:52;101438.31;;;8.33;61.52
61010;BME280;46897;55.340;86.082;2023-05-03T02:13:23;101439.16;;;8.33;61.40
61010;BME280;46897;55.340;86.082;2023-05-03T02:15:52;101439.22;;;8.28;61.01
61010;BME280;46897;55.340;86.082;2023-05-03T02:18:21;101444.38;;;8.36;61.20
61010;BME280;46897;55.340;86.082;2023-05-03T02:23:55;101450.47;;;8.44;61.24
61010;BME280;46897;55.340;86.082;2023-05-03T02:26:26;101442.56;;;8.43;61.05
61010;BME280;46897;55.340;86.082;2023-05-03T02:28:56;101451.25;;;8.50;60.71
61010;BME280;46897;55.340;86.082;2023-05-03T02:31:26;101454.84;;;8.44;60.19
61010;BME280;46897;55.340;86.082;2023-05-03T02:33:55;101443.50;;;8.36;60.15
61010;BME280;46897;55.340;86.082;2023-05-03T02:36:43;101457.34;;;8.53;60.26
61010;BME280;46897;55.340;86.082;2023-05-03T02:42:16;101460.59;;;8.69;60.01
61010;BME280;46897;55.340;86.082;2023-05-03T02:44:47;101471.94;;;8.77;60.27
61010;BME280;46897;55.340;86.082;2023-05-03T02:47:16;101441.94;;;8.81;60.29
61010;BME280;46897;55.340;86.082;2023-05-03T02:49:45;101458.13;;;9.11;60.28
61010;BME280;46897;55.340;86.082;2023-05-03T02:55:01;101461.25;;;9.77;59.98
61010;BME280;46897;55.340;86.082;2023-05-03T02:57:32;101451.00;;;10.03;59.30
61010;BME280;46897;55.340;86.082;2023-05-03T03:00:04;101442.66;;;10.22;59.06
61010;BME280;46897;55.340;86.082;2023-05-03T03:02:33;101457.72;;;10.57;58.64
61010;BME280;46897;55.340;86.082;2023-05-03T03:05:03;101454.84;;;10.67;58.13
61010;BME280;46897;55.340;86.082;2023-05-03T03:07:32;101451.88;;;10.79;58.64
61010;BME280;46897;55.340;86.082;2023-05-03T03:10:18;101451.72;;;10.85;57.79
61010;BME280;46897;55.340;86.082;2023-05-03T03:15:36;101447.47;;;10.79;57.51
61010;BME280;46897;55.340;86.082;2023-05-03T03:21:10;101453.00;;;10.70;58.02
61010;BME280;46897;55.340;86.082;2023-05-03T03:23:39;101458.38;;;10.67;57.59
61010;BME280;46897;55.340;86.082;2023-05-03T03:26:08;101454.41;;;10.49;56.93
61010;BME280;46897;55.340;86.082;2023-05-03T03:28:37;101423.47;;;10.12;57.45
61010;BME280;46897;55.340;86.082;2023-05-03T03:31:08;101451.47;;;10.21;57.15
61010;BME280;46897;55.340;86.082;2023-05-03T03:33:37;101409.66;;;9.99;57.77
61010;BME280;46897;55.340;86.082;2023-05-03T03:36:07;101456.59;;;10.30;57.29
61010;BME280;46897;55.340;86.082;2023-05-03T03:38:36;101448.66;;;10.30;57.29
61010;BME280;46897;55.340;86.082;2023-05-03T03:41:25;101462.34;;;10.49;57.34
61010;BME280;46897;55.340;86.082;2023-05-03T03:43:55;101448.41;;;10.41;56.90
61010;BME280;46897;55.340;86.082;2023-05-03T03:46:25;101463.00;;;10.57;57.01
61010;BME280;46897;55.340;86.082;2023-05-03T03:48:55;101454.94;;;10.62;57.15
61010;BME280;46897;55.340;86.082;2023-05-03T03:51:43;101461.84;;;10.69;56.81
61010;BME280;46897;55.340;86.082;2023-05-03T03:54:12;101460.88;;;10.72;56.92
61010;BME280;46897;55.340;86.082;2023-05-03T03:56:42;101445.25;;;10.62;56.33
61010;BME280;46897;55.340;86.082;2023-05-03T03:59:11;101447.19;;;10.54;56.51
61010;BME280;46897;55.340;86.082;2023-05-03T04:01:42;101453.69;;;10.41;56.41
61010;BME280;46897;55.340;86.082;2023-05-03T04:04:28;101425.00;;;10.22;56.58
61010;BME280;46897;55.340;86.082;2023-05-03T04:06:58;101447.63;;;10.37;56.64
61010;BME280;46897;55.340;86.082;2023-05-03T04:12:33;101436.47;;;10.60;56.71
61010;BME280;46897;55.340;86.082;2023-05-03T04:15:02;101435.34;;;10.71;56.17
61010;BME280;46897;55.340;86.082;2023-05-03T04:17:33;101436.94;;;10.78;56.23
61010;BME280;46897;55.340;86.082;2023-05-03T04:20:21;101427.84;;;10.87;55.89
61010;BME280;46897;55.340;86.082;2023-05-03T04:23:08;101429.34;;;10.97;55.54
61010;BME280;46897;55.340;86.082;2023-05-03T04:25:37;101426.59;;;11.01;54.99
61010;BME280;46897;55.340;86.082;2023-05-03T04:28:13;101427.25;;;11.10;55.50
61010;BME280;46897;55.340;86.082;2023-05-03T04:30:42;101419.75;;;11.26;55.55
61010;BME280;46897;55.340;86.082;2023-05-03T04:33:15;101424.53;;;11.44;55.23
61010;BME280;46897;55.340;86.082;2023-05-03T04:35:47;101422.13;;;11.66;55.26
61010;BME280;46897;55.340;86.082;2023-05-03T04:38:17;101427.88;;;11.82;54.43
61010;BME280;46897;55.340;86.082;2023-05-03T04:40:47;101427.81;;;11.84;53.76
61010;BME280;46897;55.340;86.082;2023-05-03T04:43:16;101414.69;;;11.79;53.65
61010;BME280;46897;55.340;86.082;2023-05-03T04:45:45;101415.47;;;11.83;54.05
61010;BME280;46897;55.340;86.082;2023-05-03T04:48:16;101420.44;;;11.95;53.90
61010;BME280;46897;55.340;86.082;2023-05-03T04:50:45;101415.81;;;12.02;54.15
61010;BME280;46897;55.340;86.082;2023-05-03T04:53:14;101417.03;;;12.19;54.28
61010;BME280;46897;55.340;86.082;2023-05-03T04:55:44;101409.34;;;12.38;54.45
61010;BME280;46897;55.340;86.082;2023-05-03T04:58:13;101404.13;;;12.62;53.51
61010;BME280;46897;55.340;86.082;2023-05-03T05:00:44;101407.66;;;12.88;53.49
61010;BME280;46897;55.340;86.082;2023-05-03T05:06:02;101413.00;;;13.62;53.00
61010;BME280;46897;55.340;86.082;2023-05-03T05:11:20;101406.47;;;14.38;52.48
61010;BME280;46897;55.340;86.082;2023-05-03T05:13:50;101407.31;;;14.62;52.31
61010;BME280;46897;55.340;86.082;2023-05-03T05:19:26;101406.50;;;14.81;50.75
61010;BME280;46897;55.340;86.082;2023-05-03T05:21:55;101404.97;;;14.75;50.54
61010;BME280;46897;55.340;86.082;2023-05-03T05:24:25;101405.34;;;14.66;50.16
61010;BME280;46897;55.340;86.082;2023-05-03T05:26:54;101393.53;;;14.51;50.21
61010;BME280;46897;55.340;86.082;2023-05-03T05:29:23;101410.44;;;14.72;50.01
61010;BME280;46897;55.340;86.082;2023-05-03T05:31:52;101394.66;;;14.88;49.95
61010;BME280;46897;55.340;86.082;2023-05-03T05:34:22;101393.16;;;15.22;49.62
61010;BME280;46897;55.340;86.082;2023-05-03T05:36:52;101360.91;;;15.28;47.93
61010;BME280;46897;55.340;86.082;2023-05-03T05:39:22;101399.84;;;15.70;48.00
61010;BME280;46897;55.340;86.082;2023-05-03T05:41:52;101391.06;;;15.68;48.50
61010;BME280;46897;55.340;86.082;2023-05-03T05:44:22;101380.53;;;15.65;48.31
61010;BME280;46897;55.340;86.082;2023-05-03T05:46:51;101390.44;;;15.63;46.99
61010;BME280;46897;55.340;86.082;2023-05-03T05:49:21;101399.25;;;15.44;46.53
61010;BME280;46897;55.340;86.082;2023-05-03T05:52:10;101397.63;;;15.42;47.56
61010;BME280;46897;55.340;86.082;2023-05-03T05:54:57;101394.41;;;15.33;46.58
61010;BME280;46897;55.340;86.082;2023-05-03T05:57:26;101385.88;;;15.25;47.49
61010;BME280;46897;55.340;86.082;2023-05-03T06:02:44;101390.09;;;15.31;47.37
61010;BME280;46897;55.340;86.082;2023-05-03T06:05:14;101366.50;;;15.22;47.30
61010;BME280;46897;55.340;86.082;2023-05-03T06:07:45;101392.47;;;15.37;47.19
61010;BME280;46897;55.340;86.082;2023-05-03T06:10:14;101386.16;;;15.40;47.89
61010;BME280;46897;55.340;86.082;2023-05-03T06:12:43;101393.22;;;15.60;47.99
61010;BME280;46897;55.340;86.082;2023-05-03T06:15:29;101384.72;;;15.89;48.28
61010;BME280;46897;55.340;86.082;2023-05-03T06:17:59;101381.91;;;16.11;46.54
61010;BME280;46897;55.340;86.082;2023-05-03T06:20:49;101387.84;;;16.36;46.60
61010;BME280;46897;55.340;86.082;2023-05-03T06:23:37;101386.75;;;16.57;47.11
61010;BME280;46897;55.340;86.082;2023-05-03T06:26:07;101387.56;;;16.77;46.74
61010;BME280;46897;55.340;86.082;2023-05-03T06:28:56;101388.00;;;16.86;46.25
61010;BME280;46897;55.340;86.082;2023-05-03T06:34:29;101383.47;;;16.69;44.74
61010;BME280;46897;55.340;86.082;2023-05-03T06:39:47;101356.16;;;15.91;44.85
61010;BME280;46897;55.340;86.082;2023-05-03T06:42:17;101386.78;;;15.84;44.87
61010;BME280;46897;55.340;86.082;2023-05-03T06:44:46;101382.66;;;15.77;44.93
61010;BME280;46897;55.340;86.082;2023-05-03T06:47:51;101392.69;;;15.91;45.65
61010;BME280;46897;55.340;86.082;2023-05-03T06:50:20;101376.16;;;16.02;45.43
61010;BME280;46897;55.340;86.082;2023-05-03T06:52:51;101389.41;;;16.40;44.92
61010;BME280;46897;55.340;86.082;2023-05-03T06:55:21;101395.09;;;16.68;43.75
61010;BME280;46897;55.340;86.082;2023-05-03T06:57:50;101379.78;;;16.72;43.64
61010;BME280;46897;55.340;86.082;2023-05-03T07:00:20;101403.34;;;16.83;43.92
61010;BME280;46897;55.340;86.082;2023-05-03T07:02:50;101392.75;;;16.80;43.35
61010;BME280;46897;55.340;86.082;2023-05-03T07:08:24;101395.63;;;16.94;44.40
61010;BME280;46897;55.340;86.082;2023-05-03T07:14:02;101396.38;;;17.14;44.24
61010;BME280;46897;55.340;86.082;2023-05-03T07:19:18;101397.47;;;17.27;43.44
61010;BME280;46897;55.340;86.082;2023-05-03T07:21:48;101386.75;;;17.27;44.07
61010;BME280;46897;55.340;86.082;2023-05-03T07:24:17;101399.41;;;17.57;43.29
61010;BME280;46897;55.340;86.082;2023-05-03T07:26:46;101403.00;;;17.73;42.80
61010;BME280;46897;55.340;86.082;2023-05-03T07:29:17;101404.81;;;17.88;43.09
61010;BME280;46897;55.340;86.082;2023-05-03T07:31:46;101403.44;;;18.13;42.98
61010;BME280;46897;55.340;86.082;2023-05-03T07:34:18;101388.75;;;18.20;42.35
61010;BME280;46897;55.340;86.082;2023-05-03T07:36:47;101389.09;;;18.30;42.18
61010;BME280;46897;55.340;86.082;2023-05-03T07:39:17;101390.63;;;18.34;41.33
61010;BME280;46897;55.340;86.082;2023-05-03T07:41:46;101383.75;;;18.14;41.08
61010;BME280;46897;55.340;86.082;2023-05-03T07:47:04;101398.72;;;17.69;40.19
61010;BME280;46897;55.340;86.082;2023-05-03T07:49:33;101387.91;;;17.39;39.99
61010;BME280;46897;55.340;86.082;2023-05-03T07:52:03;101399.28;;;17.09;39.92
61010;BME280;46897;55.340;86.082;2023-05-03T07:54:32;101396.66;;;16.55;39.97
61010;BME280;46897;55.340;86.082;2023-05-03T07:57:01;101380.84;;;15.97;40.53
61010;BME280;46897;55.340;86.082;2023-05-03T07:59:30;101398.94;;;15.71;40.74
61010;BME280;46897;55.340;86.082;2023-05-03T08:01:59;101406.78;;;15.55;40.32
61010;BME280;46897;55.340;86.082;2023-05-03T08:04:30;101407.78;;;15.52;41.18
61010;BME280;46897;55.340;86.082;2023-05-03T08:07:00;101362.22;;;15.38;41.38
61010;BME280;46897;55.340;86.082;2023-05-03T08:09:47;101401.75;;;16.06;41.63
61010;BME280;46897;55.340;86.082;2023-05-03T08:12:20;101409.41;;;16.50;40.83
61010;BME280;46897;55.340;86.082;2023-05-03T08:14:51;101390.31;;;16.40;39.94
61010;BME280;46897;55.340;86.082;2023-05-03T08:17:41;101406.06;;;16.27;39.85
61010;BME280;46897;55.340;86.082;2023-05-03T08:23:17;101404.00;;;16.15;39.99
61010;BME280;46897;55.340;86.082;2023-05-03T08:25:48;101413.47;;;15.84;41.26
61010;BME280;46897;55.340;86.082;2023-05-03T08:28:17;101401.34;;;15.57;41.53
61010;BME280;46897;55.340;86.082;2023-05-03T08:30:46;101404.69;;;15.62;41.45
61010;BME280;46897;55.340;86.082;2023-05-03T08:33:15;101415.81;;;15.71;41.94
61010;BME280;46897;55.340;86.082;2023-05-03T08:35:46;101365.38;;;15.65;42.00
61010;BME280;46897;55.340;86.082;2023-05-03T08:38:15;101407.94;;;16.25;41.69
61010;BME280;46897;55.340;86.082;2023-05-03T08:40:47;101364.03;;;16.31;41.65
61010;BME280;46897;55.340;86.082;2023-05-03T08:43:19;101383.69;;;16.65;40.75
61010;BME280;46897;55.340;86.082;2023-05-03T08:45:49;101398.94;;;16.80;40.58
61010;BME280;46897;55.340;86.082;2023-05-03T08:48:20;101407.50;;;16.88;40.96
61010;BME280;46897;55.340;86.082;2023-05-03T08:50:52;101393.16;;;16.89;40.95
61010;BME280;46897;55.340;86.082;2023-05-03T08:53:23;101384.91;;;16.77;40.84
61010;BME280;46897;55.340;86.082;2023-05-03T08:58:58;101381.41;;;16.57;41.41
61010;BME280;46897;55.340;86.082;2023-05-03T09:01:35;101396.44;;;16.60;41.17
61010;BME280;46897;55.340;86.082;2023-05-03T09:04:04;101393.06;;;16.56;40.90
61010;BME280;46897;55.340;86.082;2023-05-03T09:06:36;101396.97;;;16.49;40.93
61010;BME280;46897;55.340;86.082;2023-05-03T09:09:30;101392.41;;;16.51;41.33
61010;BME280;46897;55.340;86.082;2023-05-03T09:11:59;101391.41;;;16.54;41.49
61010;BME280;46897;55.340;86.082;2023-05-03T09:14:29;101398.91;;;16.82;41.74
61010;BME280;46897;55.340;86.082;2023-05-03T09:17:13;101390.53;;;17.23;40.97
61010;BME280;46897;55.340;86.082;2023-05-03T09:19:50;101395.97;;;17.55;40.91
61010;BME280;46897;55.340;86.082;2023-05-03T09:28:44;101394.09;;;17.73;40.58
61010;BME280;46897;55.340;86.082;2023-05-03T09:31:56;101393.91;;;17.60;40.67
61010;BME280;46897;55.340;86.082;2023-05-03T09:34:44;101399.56;;;17.54;40.10
61010;BME280;46897;55.340;86.082;2023-05-03T09:37:14;101393.91;;;17.60;39.93
61010;BME280;46897;55.340;86.082;2023-05-03T09:39:44;101389.50;;;18.38;40.44
61010;BME280;46897;55.340;86.082;2023-05-03T09:42:17;101366.09;;;20.01;40.58
61010;BME280;46897;55.340;86.082;2023-05-03T09:47:52;101381.22;;;23.73;39.39
61010;BME280;46897;55.340;86.082;2023-05-03T09:50:23;101357.72;;;25.55;38.19
61010;BME280;46897;55.340;86.082;2023-05-03T09:52:54;101379.78;;;25.41;36.51
61010;BME280;46897;55.340;86.082;2023-05-03T09:55:24;101378.75;;;25.11;37.28
61010;BME280;46897;55.340;86.082;2023-05-03T09:57:55;101366.03;;;25.23;37.25
61010;BME280;46897;55.340;86.082;2023-05-03T10:00:36;101363.41;;;25.83;36.59
61010;BME280;46897;55.340;86.082;2023-05-03T10:03:08;101360.75;;;26.80;36.00
61010;BME280;46897;55.340;86.082;2023-05-03T10:05:43;101373.47;;;27.37;35.00
61010;BME280;46897;55.340;86.082;2023-05-03T10:08:14;101376.09;;;27.56;35.65
61010;BME280;46897;55.340;86.082;2023-05-03T10:11:23;101371.94;;;27.62;33.32
61010;BME280;46897;55.340;86.082;2023-05-03T10:13:57;101378.09;;;27.26;32.11
61010;BME280;46897;55.340;86.082;2023-05-03T10:16:29;101320.63;;;26.25;32.77
61010;BME280;46897;55.340;86.082;2023-05-03T10:22:16;101377.91;;;23.13;33.76
61010;BME280;46897;55.340;86.082;2023-05-03T10:25:07;101384.25;;;21.44;34.74
61010;BME280;46897;55.340;86.082;2023-05-03T10:27:49;101382.13;;;20.03;35.53
61010;BME280;46897;55.340;86.082;2023-05-03T10:30:32;101375.63;;;18.92;35.75
61010;BME280;46897;55.340;86.082;2023-05-03T10:33:28;101390.66;;;18.18;36.48
61010;BME280;46897;55.340;86.082;2023-05-03T10:36:16;101392.53;;;17.68;36.63
61010;BME280;46897;55.340;86.082;2023-05-03T10:38:46;101385.66;;;18.12;37.93
61010;BME280;46897;55.340;86.082;2023-05-03T10:41:23;101386.28;;;19.37;37.37
61010;BME280;46897;55.340;86.082;2023-05-03T10:43:54;101366.53;;;20.62;36.27
61010;BME280;46897;55.340;86.082;2023-05-03T10:49:22;101380.06;;;21.27;34.81
61010;BME280;46897;55.340;86.082;2023-05-03T10:55:16;101384.47;;;19.80;35.15
61010;BME280;46897;55.340;86.082;2023-05-03T10:57:46;101381.75;;;19.66;35.20
61010;BME280;46897;55.340;86.082;2023-05-03T11:00:22;101378.53;;;19.61;35.58
61010;BME280;46897;55.340;86.082;2023-05-03T11:03:18;101378.53;;;19.47;34.90
61010;BME280;46897;55.340;86.082;2023-05-03T11:05:54;101377.06;;;18.83;35.58
61010;BME280;46897;55.340;86.082;2023-05-03T11:08:47;101381.03;;;18.76;35.54
61010;BME280;46897;55.340;86.082;2023-05-03T11:11:16;101369.69;;;19.16;35.39
61010;BME280;46897;55.340;86.082;2023-05-03T11:13:46;101374.41;;;19.12;35.36
61010;BME280;46897;55.340;86.082;2023-05-03T11:16:15;101357.75;;;18.77;35.60
61010;BME280;46897;55.340;86.082;2023-05-03T11:18:46;101374.53;;;18.50;35.71
61010;BME280;46897;55.340;86.082;2023-05-03T11:21:16;101380.66;;;18.06;35.13
61010;BME280;46897;55.340;86.082;2023-05-03T11:24:03;101367.38;;;17.55;35.45
61010;BME280;46897;55.340;86.082;2023-05-03T11:26:49;101370.44;;;16.98;35.74
61010;BME280;46897;55.340;86.082;2023-05-03T11:29:19;101372.38;;;16.42;36.10
61010;BME280;46897;55.340;86.082;2023-05-03T11:31:50;101377.97;;;16.01;36.81
61010;BME280;46897;55.340;86.082;2023-05-03T11:37:09;101342.63;;;15.77;36.98
61010;BME280;46897;55.340;86.082;2023-05-03T11:42:25;101347.94;;;15.96;36.93
61010;BME280;46897;55.340;86.082;2023-05-03T11:44:55;101369.78;;;16.04;36.95
61010;BME280;46897;55.340;86.082;2023-05-03T11:47:24;101368.94;;;15.85;36.97
61010;BME280;46897;55.340;86.082;2023-05-03T11:49:56;101362.25;;;15.76;37.22
61010;BME280;46897;55.340;86.082;2023-05-03T11:52:26;101363.66;;;16.02;37.36
61010;BME280;46897;55.340;86.082;2023-05-03T11:58:00;101368.97;;;16.21;36.82
61010;BME280;46897;55.340;86.082;2023-05-03T12:00:48;101366.09;;;16.61;37.09
61010;BME280;46897;55.340;86.082;2023-05-03T12:03:19;101373.19;;;17.79;36.61
61010;BME280;46897;55.340;86.082;2023-05-03T12:06:14;101369.72;;;19.73;35.07
61010;BME280;46897;55.340;86.082;2023-05-03T12:08:45;101326.09;;;20.64;34.36
61010;BME280;46897;55.340;86.082;2023-05-03T12:11:15;101356.06;;;20.58;34.24
61010;BME280;46897;55.340;86.082;2023-05-03T12:14:05;101364.09;;;20.05;34.57
61010;BME280;46897;55.340;86.082;2023-05-03T12:16:51;101355.31;;;19.60;34.67
61010;BME280;46897;55.340;86.082;2023-05-03T12:19:24;101368.69;;;20.03;34.12
61010;BME280;46897;55.340;86.082;2023-05-03T12:21:58;101367.03;;;19.73;34.11
61010;BME280;46897;55.340;86.082;2023-05-03T12:24:47;101357.59;;;18.80;34.17
61010;BME280;46897;55.340;86.082;2023-05-03T12:27:19;101364.22;;;17.96;34.93
61010;BME280;46897;55.340;86.082;2023-05-03T12:29:50;101363.63;;;17.26;35.18
61010;BME280;46897;55.340;86.082;2023-05-03T12:32:19;101368.94;;;16.75;36.16
61010;BME280;46897;55.340;86.082;2023-05-03T12:35:07;101364.09;;;16.29;36.60
61010;BME280;46897;55.340;86.082;2023-05-03T12:40:30;101366.41;;;15.63;36.78
61010;BME280;46897;55.340;86.082;2023-05-03T12:43:19;101371.28;;;15.34;36.68
61010;BME280;46897;55.340;86.082;2023-05-03T12:46:07;101375.84;;;15.11;36.86
61010;BME280;46897;55.340;86.082;2023-05-03T12:49:01;101377.06;;;14.84;36.92
61010;BME280;46897;55.340;86.082;2023-05-03T12:54:59;101377.81;;;14.45;37.75
61010;BME280;46897;55.340;86.082;2023-05-03T12:57:30;101379.03;;;14.36;37.72
61010;BME280;46897;55.340;86.082;2023-05-03T13:00:36;101380.47;;;14.23;37.94
61010;BME280;46897;55.340;86.082;2023-05-03T13:03:26;101376.63;;;14.08;37.76
61010;BME280;46897;55.340;86.082;2023-05-03T13:06:00;101376.28;;;13.95;38.04
61010;BME280;46897;55.340;86.082;2023-05-03T13:08:39;101384.56;;;13.87;37.91
61010;BME280;46897;55.340;86.082;2023-05-03T13:11:18;101385.91;;;13.75;37.97
61010;BME280;46897;55.340;86.082;2023-05-03T13:13:48;101384.63;;;13.62;38.13
61010;BME280;46897;55.340;86.082;2023-05-03T13:16:17;101376.53;;;13.42;38.03
61010;BME280;46897;55.340;86.082;2023-05-03T13:18:46;101389.25;;;13.33;38.31
61010;BME280;46897;55.340;86.082;2023-05-03T13:21:16;101373.56;;;13.26;38.72
61010;BME280;46897;55.340;86.082;2023-05-03T13:23:52;101382.13;;;13.34;38.47
61010;BME280;46897;55.340;86.082;2023-05-03T13:26:41;101391.63;;;13.41;38.41
61010;BME280;46897;55.340;86.082;2023-05-03T13:31:58;101391.13;;;13.05;38.88
61010;BME280;46897;55.340;86.082;2023-05-03T13:34:28;101304.25;;;12.31;38.90
61010;BME280;46897;55.340;86.082;2023-05-03T13:36:57;101321.00;;;12.33;39.06
61010;BME280;46897;55.340;86.082;2023-05-03T13:39:26;101380.13;;;12.38;39.04
61010;BME280;46897;55.340;86.082;2023-05-03T13:41:57;101403.59;;;12.51;39.37
61010;BME280;46897;55.340;86.082;2023-05-03T13:44:26;101356.19;;;12.13;39.36
61010;BME280;46897;55.340;86.082;2023-05-03T13:46:56;101303.31;;;11.77;39.31
61010;BME280;46897;55.340;86.082;2023-05-03T13:49:26;101337.56;;;11.85;39.69
61010;BME280;46897;55.340;86.082;2023-05-03T13:51:59;101375.94;;;12.03;39.65
61010;BME280;46897;55.340;86.082;2023-05-03T13:54:31;101398.06;;;12.04;39.83
61010;BME280;46897;55.340;86.082;2023-05-03T13:57:02;101422.56;;;12.12;39.86
61010;BME280;46897;55.340;86.082;2023-05-03T13:59:32;101378.13;;;11.89;39.84
61010;BME280;46897;55.340;86.082;2023-05-03T14:02:02;101361.84;;;11.73;39.99
61010;BME280;46897;55.340;86.082;2023-05-03T14:04:31;101416.63;;;12.04;39.98
61010;BME280;46897;55.340;86.082;2023-05-03T14:07:17;101398.84;;;11.76;40.42
61010;BME280;46897;55.340;86.082;2023-05-03T14:09:47;101335.47;;;11.38;40.11
61010;BME280;46897;55.340;86.082;2023-05-03T14:12:18;101337.41;;;11.32;40.11
61010;BME280;46897;55.340;86.082;2023-05-03T14:14:47;101309.00;;;11.07;40.21
61010;BME280;46897;55.340;86.082;2023-05-03T14:17:16;101403.91;;;11.55;40.33
61010;BME280;46897;55.340;86.082;2023-05-03T14:19:46;101422.31;;;11.60;40.53
61010;BME280;46897;55.340;86.082;2023-05-03T14:22:33;101425.16;;;11.54;40.47
61010;BME280;46897;55.340;86.082;2023-05-03T14:25:02;101397.47;;;11.33;40.61
61010;BME280;46897;55.340;86.082;2023-05-03T14:27:33;101387.16;;;11.22;40.67
61010;BME280;46897;55.340;86.082;2023-05-03T14:30:04;101408.06;;;11.33;40.55
61010;BME280;46897;55.340;86.082;2023-05-03T14:32:33;101419.31;;;11.41;40.43
61010;BME280;46897;55.340;86.082;2023-05-03T14:35:03;101383.06;;;11.10;40.75
61010;BME280;46897;55.340;86.082;2023-05-03T14:40:20;101368.72;;;10.86;40.89
61010;BME280;46897;55.340;86.082;2023-05-03T14:42:51;101359.16;;;10.80;41.04
61010;BME280;46897;55.340;86.082;2023-05-03T14:45:20;101392.22;;;10.98;41.14
61010;BME280;46897;55.340;86.082;2023-05-03T14:47:50;101347.19;;;10.66;41.02
61010;BME280;46897;55.340;86.082;2023-05-03T14:50:19;101339.25;;;10.66;41.11
61010;BME280;46897;55.340;86.082;2023-05-03T14:52:48;101423.59;;;11.14;41.11
61010;BME280;46897;55.340;86.082;2023-05-03T14:55:18;101427.22;;;11.11;41.10
61010;BME280;46897;55.340;86.082;2023-05-03T14:57:47;101384.72;;;10.81;41.14
61010;BME280;46897;55.340;86.082;2023-05-03T15:00:19;101386.75;;;10.72;41.15